sensor_id;sensor_type;location;lat;lon;timestamp;P1;durP1;ratioP1;P2;durP2;ratioP2
25511;SDS011;13414;44.534;18.700;2023-07-02T00:02:21;9.30;;;6.00;;
25511;SDS011;13414;44.534;18.700;2023-07-02T00:04:49;8.07;;;5.70;;
25511;SDS011;13414;44.534;18.700;2023-07-02T00:07:18;9.10;;;6.60;;
25511;SDS011;13414;44.534;18.700;2023-07-02T00:09:46;9.05;;;6.70;;
25511;SDS011;13414;44.534;18.700;2023-07-02T00:12:13;9.25;;;6.65;;
25511;SDS011;13414;44.534;18.700;2023-07-02T00:14:42;10.30;;;6.72;;
25511;SDS011;13414;44.534;18.700;2023-07-02T00:17:10;9.68;;;7.05;;
25511;SDS011;13414;44.534;18.700;2023-07-02T00:19:38;8.60;;;7.20;;
25511;SDS011;13414;44.534;18.700;2023-07-02T00:22:07;43.42;;;7.70;;
25511;SDS011;13414;44.534;18.700;2023-07-02T00:24:35;11.30;;;6.45;;
25511;SDS011;13414;44.534;18.700;2023-07-02T00:27:03;11.27;;;6.47;;
25511;SDS011;13414;44.534;18.700;2023-07-02T00:29:31;12.05;;;6.40;;
25511;SDS011;13414;44.534;18.700;2023-07-02T00:31:58;9.88;;;6.72;;
25511;SDS011;13414;44.534;18.700;2023-07-02T00:34:26;9.10;;;6.90;;
25511;SDS011;13414;44.534;18.700;2023-07-02T00:36:53;10.00;;;6.93;;
25511;SDS011;13414;44.534;18.700;2023-07-02T00:39:21;9.95;;;7.07;;
25511;SDS011;13414;44.534;18.700;2023-07-02T00:41:49;9.85;;;7.13;;
25511;SDS011;13414;44.534;18.700;2023-07-02T00:44:17;8.68;;;6.38;;
25511;SDS011;13414;44.534;18.700;2023-07-02T00:46:44;9.43;;;6.93;;
25511;SDS011;13414;44.534;18.700;2023-07-02T00:49:12;10.15;;;7.10;;
25511;SDS011;13414;44.534;18.700;2023-07-02T00:51:39;10.63;;;7.07;;
25511;SDS011;13414;44.534;18.700;2023-07-02T00:54:08;10.25;;;7.53;;
25511;SDS011;13414;44.534;18.700;2023-07-02T00:56:35;10.07;;;7.13;;
25511;SDS011;13414;44.534;18.700;2023-07-02T00:59:04;12.18;;;6.88;;
25511;SDS011;13414;44.534;18.700;2023-07-02T01:01:33;9.80;;;6.43;;
25511;SDS011;13414;44.534;18.700;2023-07-02T01:04:04;9.07;;;6.32;;
25511;SDS011;13414;44.534;18.700;2023-07-02T01:06:35;9.80;;;6.70;;
25511;SDS011;13414;44.534;18.700;2023-07-02T01:09:05;9.00;;;6.72;;
25511;SDS011;13414;44.534;18.700;2023-07-02T01:11:35;9.77;;;7.20;;
25511;SDS011;13414;44.534;18.700;2023-07-02T01:14:08;10.18;;;6.50;;
25511;SDS011;13414;44.534;18.700;2023-07-02T01:16:39;9.68;;;6.68;;
25511;SDS011;13414;44.534;18.700;2023-07-02T01:19:11;9.40;;;6.07;;
25511;SDS011;13414;44.534;18.700;2023-07-02T01:21:45;10.43;;;6.68;;
25511;SDS011;13414;44.534;18.700;2023-07-02T01:24:13;11.93;;;7.45;;
25511;SDS011;13414;44.534;18.700;2023-07-02T01:26:41;8.80;;;6.55;;
25511;SDS011;13414;44.534;18.700;2023-07-02T01:29:13;7.82;;;6.25;;
25511;SDS011;13414;44.534;18.700;2023-07-02T01:31:41;8.80;;;6.28;;
25511;SDS011;13414;44.534;18.700;2023-07-02T01:34:11;10.27;;;7.10;;
25511;SDS011;13414;44.534;18.700;2023-07-02T01:36:39;9.82;;;6.47;;
25511;SDS011;13414;44.534;18.700;2023-07-02T01:39:08;11.05;;;6.65;;
25511;SDS011;13414;44.534;18.700;2023-07-02T01:41:37;10.27;;;6.65;;
25511;SDS011;13414;44.534;18.700;2023-07-02T01:44:15;9.25;;;6.75;;
25511;SDS011;13414;44.534;18.700;2023-07-02T01:46:43;11.75;;;6.65;;
25511;SDS011;13414;44.534;18.700;2023-07-02T01:49:14;9.27;;;6.32;;
25511;SDS011;13414;44.534;18.700;2023-07-02T01:51:44;9.13;;;6.55;;
25511;SDS011;13414;44.534;18.700;2023-07-02T01:54:13;11.32;;;7.10;;
25511;SDS011;13414;44.534;18.700;2023-07-02T01:56:41;9.25;;;6.43;;
25511;SDS011;13414;44.534;18.700;2023-07-02T01:59:08;9.85;;;7.00;;
25511;SDS011;13414;44.534;18.700;2023-07-02T02:01:36;8.55;;;6.50;;
25511;SDS011;13414;44.534;18.700;2023-07-02T02:04:06;9.38;;;6.65;;
25511;SDS011;13414;44.534;18.700;2023-07-02T02:06:33;9.07;;;6.57;;
25511;SDS011;13414;44.534;18.700;2023-07-02T02:09:01;11.00;;;6.57;;
25511;SDS011;13414;44.534;18.700;2023-07-02T02:11:31;10.95;;;6.72;;
25511;SDS011;13414;44.534;18.700;2023-07-02T02:14:00;9.73;;;6.70;;
25511;SDS011;13414;44.534;18.700;2023-07-02T02:16:28;10.30;;;6.97;;
25511;SDS011;13414;44.534;18.700;2023-07-02T02:18:56;11.45;;;6.63;;
25511;SDS011;13414;44.534;18.700;2023-07-02T02:21:23;8.93;;;6.20;;
25511;SDS011;13414;44.534;18.700;2023-07-02T02:23:50;9.73;;;6.50;;
25511;SDS011;13414;44.534;18.700;2023-07-02T02:26:18;8.90;;;5.47;;
25511;SDS011;13414;44.534;18.700;2023-07-02T02:28:48;12.77;;;6.57;;
25511;SDS011;13414;44.534;18.700;2023-07-02T02:31:16;10.45;;;6.70;;
25511;SDS011;13414;44.534;18.700;2023-07-02T02:33:44;12.25;;;7.63;;
25511;SDS011;13414;44.534;18.700;2023-07-02T02:36:15;10.00;;;6.82;;
25511;SDS011;13414;44.534;18.700;2023-07-02T02:38:43;7.55;;;6.07;;
25511;SDS011;13414;44.534;18.700;2023-07-02T02:41:10;11.05;;;7.07;;
25511;SDS011;13414;44.534;18.700;2023-07-02T02:43:42;8.32;;;6.82;;
25511;SDS011;13414;44.534;18.700;2023-07-02T02:46:19;9.60;;;5.78;;
25511;SDS011;13414;44.534;18.700;2023-07-02T02:48:47;9.02;;;6.57;;
25511;SDS011;13414;44.534;18.700;2023-07-02T02:51:14;13.60;;;6.40;;
25511;SDS011;13414;44.534;18.700;2023-07-02T02:53:41;11.48;;;6.25;;
25511;SDS011;13414;44.534;18.700;2023-07-02T02:56:09;8.50;;;6.18;;
25511;SDS011;13414;44.534;18.700;2023-07-02T02:58:36;9.88;;;6.57;;
25511;SDS011;13414;44.534;18.700;2023-07-02T03:01:04;8.95;;;6.82;;
25511;SDS011;13414;44.534;18.700;2023-07-02T03:03:38;9.85;;;6.43;;
25511;SDS011;13414;44.534;18.700;2023-07-02T03:06:11;8.70;;;6.50;;
25511;SDS011;13414;44.534;18.700;2023-07-02T03:08:40;11.70;;;6.78;;
25511;SDS011;13414;44.534;18.700;2023-07-02T03:11:07;10.88;;;6.90;;
25511;SDS011;13414;44.534;18.700;2023-07-02T03:13:35;10.57;;;6.60;;
25511;SDS011;13414;44.534;18.700;2023-07-02T03:16:02;10.32;;;6.15;;
25511;SDS011;13414;44.534;18.700;2023-07-02T03:18:29;9.30;;;6.65;;
25511;SDS011;13414;44.534;18.700;2023-07-02T03:20:58;12.07;;;7.07;;
25511;SDS011;13414;44.534;18.700;2023-07-02T03:23:26;11.38;;;7.00;;
25511;SDS011;13414;44.534;18.700;2023-07-02T03:25:53;16.52;;;7.68;;
25511;SDS011;13414;44.534;18.700;2023-07-02T03:28:21;10.90;;;6.63;;
25511;SDS011;13414;44.534;18.700;2023-07-02T03:30:48;11.68;;;6.88;;
25511;SDS011;13414;44.534;18.700;2023-07-02T03:33:16;10.27;;;6.55;;
25511;SDS011;13414;44.534;18.700;2023-07-02T03:35:43;9.00;;;6.88;;
25511;SDS011;13414;44.534;18.700;2023-07-02T03:38:12;9.70;;;7.13;;
25511;SDS011;13414;44.534;18.700;2023-07-02T03:40:40;11.63;;;7.10;;
25511;SDS011;13414;44.534;18.700;2023-07-02T03:43:07;10.15;;;6.38;;
25511;SDS011;13414;44.534;18.700;2023-07-02T03:45:35;11.77;;;6.75;;
25511;SDS011;13414;44.534;18.700;2023-07-02T03:48:02;8.82;;;6.43;;
25511;SDS011;13414;44.534;18.700;2023-07-02T03:50:30;9.43;;;6.32;;
25511;SDS011;13414;44.534;18.700;2023-07-02T03:52:57;8.65;;;5.95;;
25511;SDS011;13414;44.534;18.700;2023-07-02T03:55:26;9.98;;;6.47;;
25511;SDS011;13414;44.534;18.700;2023-07-02T03:57:53;9.23;;;6.18;;
25511;SDS011;13414;44.534;18.700;2023-07-02T04:00:21;9.35;;;6.38;;
25511;SDS011;13414;44.534;18.700;2023-07-02T04:02:49;12.25;;;6.78;;
25511;SDS011;13414;44.534;18.700;2023-07-02T04:05:17;11.30;;;6.35;;
25511;SDS011;13414;44.534;18.700;2023-07-02T04:07:45;9.52;;;6.47;;
25511;SDS011;13414;44.534;18.700;2023-07-02T04:10:12;9.57;;;6.45;;
25511;SDS011;13414;44.534;18.700;2023-07-02T04:12:41;10.68;;;6.32;;
25511;SDS011;13414;44.534;18.700;2023-07-02T04:15:10;9.88;;;6.35;;
25511;SDS011;13414;44.534;18.700;2023-07-02T04:17:37;9.82;;;7.05;;
25511;SDS011;13414;44.534;18.700;2023-07-02T04:20:05;8.15;;;6.50;;
25511;SDS011;13414;44.534;18.700;2023-07-02T04:22:33;8.10;;;6.63;;
25511;SDS011;13414;44.534;18.700;2023-07-02T04:25:01;14.18;;;7.15;;
25511;SDS011;13414;44.534;18.700;2023-07-02T04:27:28;11.07;;;7.07;;
25511;SDS011;13414;44.534;18.700;2023-07-02T04:29:57;10.30;;;7.07;;
25511;SDS011;13414;44.534;18.700;2023-07-02T04:32:24;9.00;;;5.88;;
25511;SDS011;13414;44.534;18.700;2023-07-02T04:34:52;10.65;;;6.82;;
25511;SDS011;13414;44.534;18.700;2023-07-02T04:37:19;12.98;;;5.93;;
25511;SDS011;13414;44.534;18.700;2023-07-02T04:39:47;10.50;;;5.50;;
25511;SDS011;13414;44.534;18.700;2023-07-02T04:42:14;9.43;;;6.13;;
25511;SDS011;13414;44.534;18.700;2023-07-02T04:44:42;9.20;;;6.28;;
25511;SDS011;13414;44.534;18.700;2023-07-02T04:47:11;11.55;;;6.20;;
25511;SDS011;13414;44.534;18.700;2023-07-02T04:49:38;8.60;;;6.25;;
25511;SDS011;13414;44.534;18.700;2023-07-02T04:52:06;8.75;;;6.35;;
25511;SDS011;13414;44.534;18.700;2023-07-02T04:54:33;9.93;;;7.88;;
25511;SDS011;13414;44.534;18.700;2023-07-02T04:57:00;10.90;;;7.30;;
25511;SDS011;13414;44.534;18.700;2023-07-02T04:59:28;12.75;;;8.45;;
25511;SDS011;13414;44.534;18.700;2023-07-02T05:01:55;12.35;;;7.90;;
25511;SDS011;13414;44.534;18.700;2023-07-02T05:04:24;10.93;;;8.45;;
25511;SDS011;13414;44.534;18.700;2023-07-02T05:06:51;11.93;;;7.68;;
25511;SDS011;13414;44.534;18.700;2023-07-02T05:09:19;9.40;;;7.20;;
25511;SDS011;13414;44.534;18.700;2023-07-02T05:11:47;12.38;;;7.47;;
25511;SDS011;13414;44.534;18.700;2023-07-02T05:14:14;10.05;;;8.43;;
25511;SDS011;13414;44.534;18.700;2023-07-02T05:16:42;10.05;;;8.23;;
25511;SDS011;13414;44.534;18.700;2023-07-02T05:19:09;13.02;;;8.98;;
25511;SDS011;13414;44.534;18.700;2023-07-02T05:21:38;12.48;;;9.30;;
25511;SDS011;13414;44.534;18.700;2023-07-02T05:24:05;12.10;;;9.50;;
25511;SDS011;13414;44.534;18.700;2023-07-02T05:26:34;14.25;;;9.55;;
25511;SDS011;13414;44.534;18.700;2023-07-02T05:29:01;11.75;;;9.40;;
25511;SDS011;13414;44.534;18.700;2023-07-02T05:31:30;12.65;;;8.88;;
25511;SDS011;13414;44.534;18.700;2023-07-02T05:33:59;11.02;;;8.50;;
25511;SDS011;13414;44.534;18.700;2023-07-02T05:36:26;11.20;;;7.95;;
25511;SDS011;13414;44.534;18.700;2023-07-02T05:38:55;10.45;;;8.07;;
25511;SDS011;13414;44.534;18.700;2023-07-02T05:41:23;8.25;;;7.43;;
25511;SDS011;13414;44.534;18.700;2023-07-02T05:43:55;8.68;;;7.03;;
25511;SDS011;13414;44.534;18.700;2023-07-02T05:46:23;7.65;;;6.65;;
25511;SDS011;13414;44.534;18.700;2023-07-02T05:48:50;7.43;;;6.55;;
25511;SDS011;13414;44.534;18.700;2023-07-02T05:51:21;8.18;;;6.50;;
25511;SDS011;13414;44.534;18.700;2023-07-02T05:53:49;10.57;;;7.70;;
25511;SDS011;13414;44.534;18.700;2023-07-02T05:56:18;10.00;;;7.32;;
25511;SDS011;13414;44.534;18.700;2023-07-02T05:58:46;28.45;;;10.32;;
25511;SDS011;13414;44.534;18.700;2023-07-02T06:01:15;8.98;;;7.30;;
25511;SDS011;13414;44.534;18.700;2023-07-02T06:03:42;8.35;;;7.18;;
25511;SDS011;13414;44.534;18.700;2023-07-02T06:06:10;9.52;;;8.20;;
25511;SDS011;13414;44.534;18.700;2023-07-02T06:08:38;8.48;;;7.13;;
25511;SDS011;13414;44.534;18.700;2023-07-02T06:11:05;8.82;;;7.47;;
25511;SDS011;13414;44.534;18.700;2023-07-02T06:13:34;8.68;;;7.18;;
25511;SDS011;13414;44.534;18.700;2023-07-02T06:16:02;8.60;;;6.03;;
25511;SDS011;13414;44.534;18.700;2023-07-02T06:18:29;10.57;;;6.97;;
25511;SDS011;13414;44.534;18.700;2023-07-02T06:20:57;7.88;;;6.90;;
25511;SDS011;13414;44.534;18.700;2023-07-02T06:23:25;8.23;;;7.28;;
25511;SDS011;13414;44.534;18.700;2023-07-02T06:25:52;9.77;;;6.60;;
25511;SDS011;13414;44.534;18.700;2023-07-02T06:28:24;8.30;;;6.43;;
25511;SDS011;13414;44.534;18.700;2023-07-02T06:30:57;10.50;;;7.10;;
25511;SDS011;13414;44.534;18.700;2023-07-02T06:33:24;8.07;;;6.07;;
25511;SDS011;13414;44.534;18.700;2023-07-02T06:35:52;8.30;;;6.35;;
25511;SDS011;13414;44.534;18.700;2023-07-02T06:38:19;13.73;;;7.18;;
25511;SDS011;13414;44.534;18.700;2023-07-02T06:40:49;10.88;;;7.00;;
25511;SDS011;13414;44.534;18.700;2023-07-02T06:43:17;10.60;;;8.57;;
25511;SDS011;13414;44.534;18.700;2023-07-02T06:45:44;9.65;;;7.75;;
25511;SDS011;13414;44.534;18.700;2023-07-02T06:48:13;10.05;;;7.07;;
25511;SDS011;13414;44.534;18.700;2023-07-02T06:50:43;10.85;;;7.68;;
25511;SDS011;13414;44.534;18.700;2023-07-02T06:53:11;10.50;;;7.60;;
25511;SDS011;13414;44.534;18.700;2023-07-02T06:55:39;10.20;;;6.90;;
25511;SDS011;13414;44.534;18.700;2023-07-02T06:58:21;11.13;;;8.40;;
25511;SDS011;13414;44.534;18.700;2023-07-02T07:00:51;36.20;;;28.27;;
25511;SDS011;13414;44.534;18.700;2023-07-02T07:03:20;13.57;;;9.90;;
25511;SDS011;13414;44.534;18.700;2023-07-02T07:05:47;12.18;;;8.98;;
25511;SDS011;13414;44.534;18.700;2023-07-02T07:08:16;9.63;;;7.97;;
25511;SDS011;13414;44.534;18.700;2023-07-02T07:10:43;12.45;;;9.43;;
25511;SDS011;13414;44.534;18.700;2023-07-02T07:13:11;11.48;;;9.10;;
25511;SDS011;13414;44.534;18.700;2023-07-02T07:15:39;12.98;;;8.50;;
25511;SDS011;13414;44.534;18.700;2023-07-02T07:18:08;10.57;;;9.05;;
25511;SDS011;13414;44.534;18.700;2023-07-02T07:20:38;10.38;;;9.23;;
25511;SDS011;13414;44.534;18.700;2023-07-02T07:23:06;8.57;;;7.20;;
25511;SDS011;13414;44.534;18.700;2023-07-02T07:25:34;9.05;;;6.97;;
25511;SDS011;13414;44.534;18.700;2023-07-02T07:28:04;8.95;;;7.72;;
25511;SDS011;13414;44.534;18.700;2023-07-02T07:30:31;14.13;;;9.70;;
25511;SDS011;13414;44.534;18.700;2023-07-02T07:32:59;10.35;;;7.88;;
25511;SDS011;13414;44.534;18.700;2023-07-02T07:35:26;11.25;;;8.48;;
25511;SDS011;13414;44.534;18.700;2023-07-02T07:37:58;10.63;;;8.13;;
25511;SDS011;13414;44.534;18.700;2023-07-02T07:40:26;9.63;;;8.05;;
25511;SDS011;13414;44.534;18.700;2023-07-02T07:42:53;13.98;;;10.40;;
25511;SDS011;13414;44.534;18.700;2023-07-02T07:45:21;12.15;;;9.60;;
25511;SDS011;13414;44.534;18.700;2023-07-02T07:47:48;11.65;;;8.35;;
25511;SDS011;13414;44.534;18.700;2023-07-02T07:50:16;10.05;;;8.75;;
25511;SDS011;13414;44.534;18.700;2023-07-02T07:52:43;9.95;;;8.43;;
25511;SDS011;13414;44.534;18.700;2023-07-02T07:55:12;14.43;;;10.80;;
25511;SDS011;13414;44.534;18.700;2023-07-02T07:57:40;14.75;;;10.93;;
25511;SDS011;13414;44.534;18.700;2023-07-02T08:00:08;11.32;;;9.68;;
25511;SDS011;13414;44.534;18.700;2023-07-02T08:02:42;11.70;;;9.80;;
25511;SDS011;13414;44.534;18.700;2023-07-02T08:05:11;11.77;;;9.95;;
25511;SDS011;13414;44.534;18.700;2023-07-02T08:07:39;11.63;;;9.23;;
25511;SDS011;13414;44.534;18.700;2023-07-02T08:10:09;10.68;;;9.38;;
25511;SDS011;13414;44.534;18.700;2023-07-02T08:12:38;11.88;;;8.18;;
25511;SDS011;13414;44.534;18.700;2023-07-02T08:15:06;10.30;;;8.60;;
25511;SDS011;13414;44.534;18.700;2023-07-02T08:17:34;10.52;;;8.10;;
25511;SDS011;13414;44.534;18.700;2023-07-02T08:20:01;13.23;;;8.57;;
25511;SDS011;13414;44.534;18.700;2023-07-02T08:22:34;9.90;;;8.35;;
25511;SDS011;13414;44.534;18.700;2023-07-02T08:25:02;9.93;;;8.07;;
25511;SDS011;13414;44.534;18.700;2023-07-02T08:27:30;10.05;;;8.02;;
25511;SDS011;13414;44.534;18.700;2023-07-02T08:29:59;10.85;;;9.70;;
25511;SDS011;13414;44.534;18.700;2023-07-02T08:32:26;9.52;;;8.02;;
25511;SDS011;13414;44.534;18.700;2023-07-02T08:34:54;10.05;;;8.55;;
25511;SDS011;13414;44.534;18.700;2023-07-02T08:37:21;11.85;;;10.13;;
25511;SDS011;13414;44.534;18.700;2023-07-02T08:39:49;11.10;;;9.88;;
25511;SDS011;13414;44.534;18.700;2023-07-02T08:42:16;12.88;;;10.30;;
25511;SDS011;13414;44.534;18.700;2023-07-02T08:44:45;11.23;;;9.90;;
25511;SDS011;13414;44.534;18.700;2023-07-02T08:47:16;11.60;;;8.98;;
25511;SDS011;13414;44.534;18.700;2023-07-02T08:49:44;10.88;;;8.52;;
25511;SDS011;13414;44.534;18.700;2023-07-02T08:52:14;9.50;;;8.50;;
25511;SDS011;13414;44.534;18.700;2023-07-02T08:54:41;10.90;;;9.25;;
25511;SDS011;13414;44.534;18.700;2023-07-02T08:57:09;9.68;;;8.68;;
25511;SDS011;13414;44.534;18.700;2023-07-02T08:59:37;12.57;;;9.85;;
25511;SDS011;13414;44.534;18.700;2023-07-02T09:02:05;12.05;;;9.13;;
25511;SDS011;13414;44.534;18.700;2023-07-02T09:04:35;11.35;;;8.50;;
25511;SDS011;13414;44.534;18.700;2023-07-02T09:07:03;10.02;;;8.77;;
25511;SDS011;13414;44.534;18.700;2023-07-02T09:09:32;11.60;;;9.95;;
25511;SDS011;13414;44.534;18.700;2023-07-02T09:12:00;13.55;;;12.15;;
25511;SDS011;13414;44.534;18.700;2023-07-02T09:14:30;16.08;;;12.73;;
25511;SDS011;13414;44.534;18.700;2023-07-02T09:17:01;14.23;;;11.48;;
25511;SDS011;13414;44.534;18.700;2023-07-02T09:19:30;15.07;;;11.73;;
25511;SDS011;13414;44.534;18.700;2023-07-02T09:21:59;11.98;;;10.77;;
25511;SDS011;13414;44.534;18.700;2023-07-02T09:24:27;12.77;;;11.32;;
25511;SDS011;13414;44.534;18.700;2023-07-02T09:26:56;15.27;;;10.38;;
25511;SDS011;13414;44.534;18.700;2023-07-02T09:29:25;12.18;;;10.73;;
25511;SDS011;13414;44.534;18.700;2023-07-02T09:31:53;12.40;;;11.10;;
25511;SDS011;13414;44.534;18.700;2023-07-02T09:34:26;14.60;;;10.43;;
25511;SDS011;13414;44.534;18.700;2023-07-02T09:36:55;11.40;;;9.63;;
25511;SDS011;13414;44.534;18.700;2023-07-02T09:39:27;14.68;;;12.48;;
25511;SDS011;13414;44.534;18.700;2023-07-02T09:41:55;14.68;;;12.63;;
25511;SDS011;13414;44.534;18.700;2023-07-02T09:44:25;13.38;;;11.98;;
25511;SDS011;13414;44.534;18.700;2023-07-02T09:46:58;13.50;;;11.77;;
25511;SDS011;13414;44.534;18.700;2023-07-02T09:49:31;13.25;;;11.75;;
25511;SDS011;13414;44.534;18.700;2023-07-02T09:52:00;17.50;;;14.43;;
25511;SDS011;13414;44.534;18.700;2023-07-02T09:54:30;12.57;;;10.45;;
25511;SDS011;13414;44.534;18.700;2023-07-02T09:56:58;13.13;;;11.35;;
25511;SDS011;13414;44.534;18.700;2023-07-02T09:59:26;16.65;;;11.98;;
25511;SDS011;13414;44.534;18.700;2023-07-02T10:01:54;16.00;;;14.20;;
25511;SDS011;13414;44.534;18.700;2023-07-02T10:04:23;13.88;;;12.40;;
25511;SDS011;13414;44.534;18.700;2023-07-02T10:06:52;12.20;;;10.57;;
25511;SDS011;13414;44.534;18.700;2023-07-02T10:09:33;13.00;;;11.57;;
25511;SDS011;13414;44.534;18.700;2023-07-02T10:12:14;13.93;;;11.75;;
25511;SDS011;13414;44.534;18.700;2023-07-02T10:14:43;13.80;;;12.18;;
25511;SDS011;13414;44.534;18.700;2023-07-02T10:17:22;13.55;;;12.10;;
25511;SDS011;13414;44.534;18.700;2023-07-02T10:19:51;13.63;;;10.23;;
25511;SDS011;13414;44.534;18.700;2023-07-02T10:22:18;12.98;;;10.95;;
25511;SDS011;13414;44.534;18.700;2023-07-02T10:24:57;15.73;;;11.52;;
25511;SDS011;13414;44.534;18.700;2023-07-02T10:27:33;13.90;;;10.93;;
25511;SDS011;13414;44.534;18.700;2023-07-02T10:30:02;12.88;;;11.32;;
25511;SDS011;13414;44.534;18.700;2023-07-02T10:32:32;14.05;;;11.93;;
25511;SDS011;13414;44.534;18.700;2023-07-02T10:35:00;14.38;;;11.73;;
25511;SDS011;13414;44.534;18.700;2023-07-02T10:37:35;12.23;;;10.93;;
25511;SDS011;13414;44.534;18.700;2023-07-02T10:40:06;13.40;;;11.02;;
25511;SDS011;13414;44.534;18.700;2023-07-02T10:42:44;12.70;;;11.40;;
25511;SDS011;13414;44.534;18.700;2023-07-02T10:45:12;14.02;;;11.80;;
25511;SDS011;13414;44.534;18.700;2023-07-02T10:47:40;14.32;;;12.07;;
25511;SDS011;13414;44.534;18.700;2023-07-02T10:50:13;15.45;;;13.13;;
25511;SDS011;13414;44.534;18.700;2023-07-02T10:52:42;13.73;;;12.33;;
25511;SDS011;13414;44.534;18.700;2023-07-02T10:55:11;11.85;;;10.38;;
25511;SDS011;13414;44.534;18.700;2023-07-02T10:57:44;10.70;;;9.60;;
25511;SDS011;13414;44.534;18.700;2023-07-02T11:00:12;12.23;;;10.95;;
25511;SDS011;13414;44.534;18.700;2023-07-02T11:02:40;13.02;;;11.63;;
25511;SDS011;13414;44.534;18.700;2023-07-02T11:05:07;13.43;;;11.32;;
25511;SDS011;13414;44.534;18.700;2023-07-02T11:07:37;11.13;;;9.98;;
25511;SDS011;13414;44.534;18.700;2023-07-02T11:10:06;11.32;;;10.10;;
25511;SDS011;13414;44.534;18.700;2023-07-02T11:12:35;11.23;;;9.95;;
25511;SDS011;13414;44.534;18.700;2023-07-02T11:15:09;11.40;;;9.65;;
25511;SDS011;13414;44.534;18.700;2023-07-02T11:17:37;11.93;;;10.68;;
25511;SDS011;13414;44.534;18.700;2023-07-02T11:20:07;13.80;;;10.45;;
25511;SDS011;13414;44.534;18.700;2023-07-02T11:22:35;11.70;;;10.20;;
25511;SDS011;13414;44.534;18.700;2023-07-02T11:25:11;12.80;;;11.50;;
25511;SDS011;13414;44.534;18.700;2023-07-02T11:27:40;11.63;;;9.85;;
25511;SDS011;13414;44.534;18.700;2023-07-02T11:30:09;12.88;;;10.65;;
25511;SDS011;13414;44.534;18.700;2023-07-02T11:32:46;12.57;;;9.90;;
25511;SDS011;13414;44.534;18.700;2023-07-02T11:35:15;11.70;;;10.27;;
25511;SDS011;13414;44.534;18.700;2023-07-02T11:37:43;11.40;;;9.40;;
25511;SDS011;13414;44.534;18.700;2023-07-02T11:40:11;11.65;;;9.85;;
25511;SDS011;13414;44.534;18.700;2023-07-02T11:42:41;13.18;;;11.77;;
25511;SDS011;13414;44.534;18.700;2023-07-02T11:45:09;13.95;;;10.75;;
25511;SDS011;13414;44.534;18.700;2023-07-02T11:47:37;13.07;;;9.95;;
25511;SDS011;13414;44.534;18.700;2023-07-02T11:50:05;11.70;;;10.50;;
25511;SDS011;13414;44.534;18.700;2023-07-02T11:52:33;14.88;;;11.20;;
25511;SDS011;13414;44.534;18.700;2023-07-02T11:55:00;12.18;;;10.63;;
25511;SDS011;13414;44.534;18.700;2023-07-02T11:57:28;15.57;;;13.18;;
25511;SDS011;13414;44.534;18.700;2023-07-02T11:59:57;17.83;;;15.02;;
25511;SDS011;13414;44.534;18.700;2023-07-02T12:02:26;14.38;;;12.05;;
25511;SDS011;13414;44.534;18.700;2023-07-02T12:04:54;14.07;;;12.30;;
25511;SDS011;13414;44.534;18.700;2023-07-02T12:07:21;17.50;;;14.27;;
25511;SDS011;13414;44.534;18.700;2023-07-02T12:09:50;19.10;;;14.05;;
25511;SDS011;13414;44.534;18.700;2023-07-02T12:12:18;14.18;;;12.55;;
25511;SDS011;13414;44.534;18.700;2023-07-02T12:14:47;15.23;;;12.20;;
25511;SDS011;13414;44.534;18.700;2023-07-02T12:17:15;12.90;;;11.18;;
25511;SDS011;13414;44.534;18.700;2023-07-02T12:19:43;12.73;;;11.27;;
25511;SDS011;13414;44.534;18.700;2023-07-02T12:22:11;12.57;;;11.27;;
25511;SDS011;13414;44.534;18.700;2023-07-02T12:24:40;12.65;;;10.13;;
25511;SDS011;13414;44.534;18.700;2023-07-02T12:27:08;9.60;;;8.40;;
25511;SDS011;13414;44.534;18.700;2023-07-02T12:29:35;12.10;;;9.43;;
25511;SDS011;13414;44.534;18.700;2023-07-02T12:32:05;8.32;;;7.43;;
25511;SDS011;13414;44.534;18.700;2023-07-02T12:34:34;10.43;;;8.68;;
25511;SDS011;13414;44.534;18.700;2023-07-02T12:37:02;9.85;;;8.55;;
25511;SDS011;13414;44.534;18.700;2023-07-02T12:39:30;11.95;;;8.88;;
25511;SDS011;13414;44.534;18.700;2023-07-02T12:41:58;12.43;;;10.38;;
25511;SDS011;13414;44.534;18.700;2023-07-02T12:44:25;11.05;;;8.98;;
25511;SDS011;13414;44.534;18.700;2023-07-02T12:46:53;10.27;;;9.18;;
25511;SDS011;13414;44.534;18.700;2023-07-02T12:49:20;8.85;;;7.70;;
25511;SDS011;13414;44.534;18.700;2023-07-02T12:51:49;8.82;;;7.90;;
25511;SDS011;13414;44.534;18.700;2023-07-02T12:54:17;11.02;;;9.80;;
25511;SDS011;13414;44.534;18.700;2023-07-02T12:56:45;17.20;;;13.80;;
25511;SDS011;13414;44.534;18.700;2023-07-02T12:59:13;12.98;;;11.57;;
25511;SDS011;13414;44.534;18.700;2023-07-02T13:01:41;10.50;;;8.90;;
25511;SDS011;13414;44.534;18.700;2023-07-02T13:04:09;10.20;;;8.93;;
25511;SDS011;13414;44.534;18.700;2023-07-02T13:06:36;13.32;;;10.10;;
25511;SDS011;13414;44.534;18.700;2023-07-02T13:09:07;12.15;;;9.93;;
25511;SDS011;13414;44.534;18.700;2023-07-02T13:11:34;11.85;;;9.85;;
25511;SDS011;13414;44.534;18.700;2023-07-02T13:14:03;11.77;;;10.60;;
25511;SDS011;13414;44.534;18.700;2023-07-02T13:16:30;11.95;;;10.00;;
25511;SDS011;13414;44.534;18.700;2023-07-02T13:18:58;11.10;;;10.00;;
25511;SDS011;13414;44.534;18.700;2023-07-02T13:21:27;17.65;;;10.65;;
25511;SDS011;13414;44.534;18.700;2023-07-02T13:23:54;16.90;;;11.55;;
25511;SDS011;13414;44.534;18.700;2023-07-02T13:26:24;13.27;;;11.98;;
25511;SDS011;13414;44.534;18.700;2023-07-02T13:28:52;17.88;;;14.93;;
25511;SDS011;13414;44.534;18.700;2023-07-02T13:31:20;14.32;;;12.63;;
25511;SDS011;13414;44.534;18.700;2023-07-02T13:33:49;14.70;;;12.02;;
25511;SDS011;13414;44.534;18.700;2023-07-02T13:36:16;13.25;;;11.85;;
25511;SDS011;13414;44.534;18.700;2023-07-02T13:38:44;15.48;;;13.00;;
25511;SDS011;13414;44.534;18.700;2023-07-02T13:41:11;15.32;;;13.73;;
25511;SDS011;13414;44.534;18.700;2023-07-02T13:43:40;14.60;;;12.15;;
25511;SDS011;13414;44.534;18.700;2023-07-02T13:46:07;13.50;;;11.77;;
25511;SDS011;13414;44.534;18.700;2023-07-02T13:48:35;14.77;;;11.93;;
25511;SDS011;13414;44.534;18.700;2023-07-02T13:51:02;13.35;;;10.55;;
25511;SDS011;13414;44.534;18.700;2023-07-02T13:53:30;12.35;;;11.05;;
25511;SDS011;13414;44.534;18.700;2023-07-02T13:55:57;15.23;;;11.80;;
25511;SDS011;13414;44.534;18.700;2023-07-02T13:58:25;14.88;;;11.73;;
25511;SDS011;13414;44.534;18.700;2023-07-02T14:00:56;14.73;;;11.65;;
25511;SDS011;13414;44.534;18.700;2023-07-02T14:03:23;13.55;;;10.70;;
25511;SDS011;13414;44.534;18.700;2023-07-02T14:05:51;13.40;;;11.25;;
25511;SDS011;13414;44.534;18.700;2023-07-02T14:08:20;17.40;;;11.65;;
25511;SDS011;13414;44.534;18.700;2023-07-02T14:10:48;15.45;;;11.95;;
25511;SDS011;13414;44.534;18.700;2023-07-02T14:13:15;15.02;;;13.40;;
25511;SDS011;13414;44.534;18.700;2023-07-02T14:15:43;14.80;;;11.90;;
25511;SDS011;13414;44.534;18.700;2023-07-02T14:18:12;13.63;;;11.15;;
25511;SDS011;13414;44.534;18.700;2023-07-02T14:20:39;13.70;;;11.27;;
25511;SDS011;13414;44.534;18.700;2023-07-02T14:23:07;13.98;;;12.25;;
25511;SDS011;13414;44.534;18.700;2023-07-02T14:25:34;15.07;;;12.38;;
25511;SDS011;13414;44.534;18.700;2023-07-02T14:28:02;12.15;;;10.00;;
25511;SDS011;13414;44.534;18.700;2023-07-02T14:30:30;13.00;;;10.95;;